Time;durP1;ratioP1;P1;durP2;ratioP2;P2;SDS_P1;SDS_P2;PMS_P1;PMS_P2;Temp;Humidity;BMP_temperature;BMP_pressure;BME280_temperature;BME280_humidity;BME280_pressure;Samples;Min_cycle;Max_cycle;Signal;HPM_P1;HPM_P2
2021/07/17 00:01:46;;;;;;;23.60;9.90;;;;;;;;;;5077418;28;20456;-73
2021/07/17 00:04:14;;;;;;;22.93;9.77;;;;;;;;;;5078011;28;20488;-73
2021/07/17 00:06:47;;;;;;;25.87;10.00;;;;;;;;;;5060663;28;20564;-72
2021/07/17 00:09:18;;;;;;;27.47;10.10;;;;;;;;;;5067290;28;20496;-73
2021/07/17 00:11:48;;;;;;;22.53;10.30;;;;;;;;;;5070895;28;20488;-73
2021/07/17 00:14:17;;;;;;;23.67;10.67;;;;;;;;;;5076496;28;20456;-72
2021/07/17 00:16:49;;;;;;;17.37;9.77;;;;;;;;;;5062812;28;20472;-73
2021/07/17 00:19:23;;;;;;;23.13;10.70;;;;;;;;;;5075305;28;20465;-73
2021/07/17 00:21:52;;;;;;;17.23;9.00;;;;;;;;;;5068364;28;20441;-72
2021/07/17 00:24:24;;;;;;;19.77;9.37;;;;;;;;;;5066957;28;20467;-72
2021/07/17 00:26:53;;;;;;;21.97;12.60;;;;;;;;;;5064212;28;20478;-72
2021/07/17 00:29:20;;;;;;;17.03;9.27;;;;;;;;;;5073015;28;20467;-72
2021/07/17 00:31:48;;;;;;;19.70;9.37;;;;;;;;;;5057632;28;20457;-73
2021/07/17 00:34:16;;;;;;;24.73;9.47;;;;;;;;;;5066905;28;20734;-73
2021/07/17 00:36:45;;;;;;;14.13;8.77;;;;;;;;;;5076419;28;20475;-72
2021/07/17 00:39:13;;;;;;;25.57;9.90;;;;;;;;;;5076652;28;20482;-72
2021/07/17 00:41:42;;;;;;;19.27;9.57;;;;;;;;;;5076397;28;20510;-72
2021/07/17 00:44:10;;;;;;;21.83;10.30;;;;;;;;;;5077720;28;20829;-72
2021/07/17 00:46:38;;;;;;;18.47;7.57;;;;;;;;;;5077265;28;20919;-71
2021/07/17 00:49:09;;;;;;;25.20;8.93;;;;;;;;;;5077064;28;20453;-72
2021/07/17 00:51:37;;;;;;;22.00;9.30;;;;;;;;;;5076943;28;20461;-72
2021/07/17 00:54:05;;;;;;;23.23;11.60;;;;;;;;;;5076699;28;20445;-72
2021/07/17 00:56:35;;;;;;;20.10;8.40;;;;;;;;;;5069140;28;20457;-71
2021/07/17 00:59:04;;;;;;;25.47;10.77;;;;;;;;;;5072860;28;20745;-73
2021/07/17 01:01:33;;;;;;;23.93;8.80;;;;;;;;;;5076957;28;20555;-71
2021/07/17 01:04:03;;;;;;;20.80;10.00;;;;;;;;;;5077371;28;20456;-72
2021/07/17 01:06:31;;;;;;;24.07;9.83;;;;;;;;;;5061449;28;20449;-72
2021/07/17 01:08:59;;;;;;;19.03;8.13;;;;;;;;;;5058206;28;20457;-73
2021/07/17 01:11:29;;;;;;;22.20;9.20;;;;;;;;;;5071187;28;20848;-73
2021/07/17 01:13:58;;;;;;;30.43;8.90;;;;;;;;;;5079696;28;20448;-73
2021/07/17 01:16:27;;;;;;;16.47;7.87;;;;;;;;;;5074126;28;20457;-72
2021/07/17 01:18:56;;;;;;;19.37;9.20;;;;;;;;;;5058073;28;20836;-72
2021/07/17 01:21:25;;;;;;;27.03;9.37;;;;;;;;;;5057034;28;20536;-72
2021/07/17 01:23:53;;;;;;;25.77;8.80;;;;;;;;;;5057688;28;20457;-72
2021/07/17 01:26:21;;;;;;;17.60;9.53;;;;;;;;;;5061961;28;20456;-73
2021/07/17 01:28:49;;;;;;;26.43;9.40;;;;;;;;;;5076752;28;20452;-72
2021/07/17 01:31:16;;;;;;;25.27;9.57;;;;;;;;;;5077323;28;20860;-72
2021/07/17 01:33:44;;;;;;;29.40;11.73;;;;;;;;;;5076476;28;20449;-73
2021/07/17 01:36:12;;;;;;;18.03;8.47;;;;;;;;;;5063996;28;20515;-73
2021/07/17 01:38:43;;;;;;;25.30;8.60;;;;;;;;;;5056851;28;20445;-73
2021/07/17 01:41:14;;;;;;;25.30;8.70;;;;;;;;;;5062415;28;20460;-72
2021/07/17 01:43:45;;;;;;;18.37;8.07;;;;;;;;;;5076951;28;20539;-72
2021/07/17 01:46:14;;;;;;;18.33;7.70;;;;;;;;;;5058517;28;20462;-71
2021/07/17 01:48:42;;;;;;;13.67;7.50;;;;;;;;;;5055975;28;20496;-72
2021/07/17 01:51:10;;;;;;;26.70;8.97;;;;;;;;;;5055814;28;20527;-72
2021/07/17 01:53:38;;;;;;;21.87;7.70;;;;;;;;;;5055785;28;20456;-71
2021/07/17 01:56:08;;;;;;;16.20;7.90;;;;;;;;;;5061003;28;20868;-73
2021/07/17 01:58:36;;;;;;;23.53;7.90;;;;;;;;;;5066321;28;20753;-72
2021/07/17 02:01:06;;;;;;;17.47;7.90;;;;;;;;;;5074294;28;20457;-73
2021/07/17 02:03:36;;;;;;;23.50;9.20;;;;;;;;;;5067985;28;20486;-73
2021/07/17 02:06:04;;;;;;;18.33;8.30;;;;;;;;;;5075688;28;20460;-72
2021/07/17 02:08:33;;;;;;;23.70;8.53;;;;;;;;;;5076415;28;20480;-72
2021/07/17 02:11:01;;;;;;;15.53;6.47;;;;;;;;;;5067027;28;20869;-72
2021/07/17 02:13:30;;;;;;;13.23;7.37;;;;;;;;;;5070355;28;20506;-72
2021/07/17 02:15:59;;;;;;;18.63;9.83;;;;;;;;;;5075433;28;20471;-72
2021/07/17 02:18:31;;;;;;;15.10;7.47;;;;;;;;;;5076066;28;20503;-73
2021/07/17 02:21:00;;;;;;;12.10;6.53;;;;;;;;;;5076597;28;20812;-71
2021/07/17 02:23:28;;;;;;;25.30;8.30;;;;;;;;;;5076021;28;20483;-71
2021/07/17 02:25:56;;;;;;;19.33;8.27;;;;;;;;;;5074343;28;20459;-73
2021/07/17 02:28:24;;;;;;;14.20;7.33;;;;;;;;;;5065294;28;20477;-73
2021/07/17 02:30:55;;;;;;;18.67;7.13;;;;;;;;;;5076541;28;20460;-72
2021/07/17 02:33:23;;;;;;;15.73;6.90;;;;;;;;;;5076122;28;20452;-72
2021/07/17 02:35:51;;;;;;;17.50;6.90;;;;;;;;;;5063127;28;20527;-72
2021/07/17 02:38:19;;;;;;;16.90;8.53;;;;;;;;;;5056514;28;20453;-72
2021/07/17 02:40:46;;;;;;;16.67;8.13;;;;;;;;;;5072159;28;20464;-72
2021/07/17 02:43:14;;;;;;;17.53;8.20;;;;;;;;;;5075375;28;20452;-72
2021/07/17 02:45:42;;;;;;;14.33;7.47;;;;;;;;;;5076236;28;20673;-72
2021/07/17 02:48:11;;;;;;;11.70;7.30;;;;;;;;;;5075662;28;20769;-71
2021/07/17 02:50:39;;;;;;;19.53;8.80;;;;;;;;;;5072455;28;20464;-71
2021/07/17 02:53:09;;;;;;;17.00;7.73;;;;;;;;;;5075635;28;20491;-71
2021/07/17 02:55:37;;;;;;;16.17;7.00;;;;;;;;;;5070273;28;20456;-71
2021/07/17 02:58:05;;;;;;;13.30;7.23;;;;;;;;;;5062992;28;20445;-71
2021/07/17 03:00:35;;;;;;;25.13;6.90;;;;;;;;;;5062437;28;20509;-71
2021/07/17 03:03:03;;;;;;;19.03;9.00;;;;;;;;;;5055886;28;20492;-73
2021/07/17 03:05:32;;;;;;;21.17;8.17;;;;;;;;;;5066898;28;20529;-73
2021/07/17 03:08:00;;;;;;;19.73;7.10;;;;;;;;;;5075284;28;20927;-72
2021/07/17 03:10:28;;;;;;;20.70;7.37;;;;;;;;;;5056617;28;20457;-73
2021/07/17 03:12:56;;;;;;;19.50;7.23;;;;;;;;;;5064626;28;20488;-73
2021/07/17 03:15:24;;;;;;;17.43;7.40;;;;;;;;;;5075535;28;20456;-72
2021/07/17 03:17:51;;;;;;;15.57;7.37;;;;;;;;;;5075787;28;20445;-73
2021/07/17 03:20:32;;;;;;;27.63;7.10;;;;;;;;;;5075392;28;20483;-72
2021/07/17 03:23:02;;;;;;;16.67;7.77;;;;;;;;;;5075906;28;20452;-73
2021/07/17 03:25:30;;;;;;;24.13;7.50;;;;;;;;;;5072248;28;20468;-73
2021/07/17 03:27:58;;;;;;;17.23;7.13;;;;;;;;;;5064387;28;20565;-72
2021/07/17 03:30:27;;;;;;;26.80;8.70;;;;;;;;;;5079614;28;20461;-71
2021/07/17 03:32:55;;;;;;;11.33;6.20;;;;;;;;;;5079346;28;20449;-72
2021/07/17 03:35:25;;;;;;;19.53;7.93;;;;;;;;;;5078144;28;20456;-71
2021/07/17 03:37:53;;;;;;;19.87;7.70;;;;;;;;;;5078590;28;20472;-71
2021/07/17 03:40:22;;;;;;;13.73;7.83;;;;;;;;;;5078466;28;20487;-71
2021/07/17 03:42:50;;;;;;;13.13;8.30;;;;;;;;;;5076416;28;20453;-72
2021/07/17 03:45:17;;;;;;;16.17;8.17;;;;;;;;;;5063815;28;20818;-73
2021/07/17 03:47:45;;;;;;;21.93;7.83;;;;;;;;;;5078588;28;20818;-73
2021/07/17 03:50:13;;;;;;;16.40;7.30;;;;;;;;;;5078750;28;20784;-71
2021/07/17 03:52:41;;;;;;;17.97;7.80;;;;;;;;;;5079147;28;20925;-73
2021/07/17 03:55:09;;;;;;;23.47;7.73;;;;;;;;;;5077577;28;20794;-73
2021/07/17 03:57:40;;;;;;;12.63;7.40;;;;;;;;;;5070957;28;20449;-73
2021/07/17 04:00:09;;;;;;;16.77;9.57;;;;;;;;;;5078730;28;20461;-73
2021/07/17 04:02:42;;;;;;;13.50;8.30;;;;;;;;;;5077050;28;20482;-73
2021/07/17 04:05:10;;;;;;;20.30;7.73;;;;;;;;;;5071785;28;20465;-72
2021/07/17 04:07:38;;;;;;;16.97;8.10;;;;;;;;;;5071562;28;20991;-72
2021/07/17 04:10:07;;;;;;;12.80;7.20;;;;;;;;;;5062725;28;20803;-72
2021/07/17 04:12:35;;;;;;;17.20;7.87;;;;;;;;;;5058469;28;20464;-72
2021/07/17 04:15:05;;;;;;;22.47;9.07;;;;;;;;;;5058428;28;20461;-72
2021/07/17 04:17:33;;;;;;;18.97;7.50;;;;;;;;;;5058108;28;20776;-73
2021/07/17 04:20:01;;;;;;;16.23;8.50;;;;;;;;;;5057886;28;20476;-72
2021/07/17 04:22:29;;;;;;;15.93;7.40;;;;;;;;;;5057995;28;20441;-73
2021/07/17 04:24:57;;;;;;;20.63;7.70;;;;;;;;;;5058332;28;20522;-72
2021/07/17 04:27:25;;;;;;;17.50;8.00;;;;;;;;;;5057812;28;20456;-72
2021/07/17 04:29:53;;;;;;;21.43;8.33;;;;;;;;;;5057309;28;20461;-72
2021/07/17 04:32:22;;;;;;;23.23;8.43;;;;;;;;;;5057437;28;20450;-72
2021/07/17 04:34:50;;;;;;;18.20;7.67;;;;;;;;;;5057103;28;20465;-72
2021/07/17 04:37:18;;;;;;;13.87;6.50;;;;;;;;;;5057025;28;20461;-72
2021/07/17 04:39:48;;;;;;;15.60;6.80;;;;;;;;;;5056909;28;20457;-73
2021/07/17 04:42:16;;;;;;;14.07;7.90;;;;;;;;;;5062258;28;20551;-72
2021/07/17 04:44:44;;;;;;;18.07;7.80;;;;;;;;;;5077756;28;20461;-72
2021/07/17 04:47:11;;;;;;;13.27;7.27;;;;;;;;;;5076885;28;20465;-72
2021/07/17 04:49:41;;;;;;;17.60;7.57;;;;;;;;;;5076654;28;20476;-72
2021/07/17 04:52:09;;;;;;;19.50;8.10;;;;;;;;;;5077363;28;20463;-73
2021/07/17 04:54:36;;;;;;;11.33;7.10;;;;;;;;;;5077367;28;20480;-72
2021/07/17 04:57:04;;;;;;;15.10;7.13;;;;;;;;;;5077539;28;20820;-72
2021/07/17 04:59:33;;;;;;;13.23;7.00;;;;;;;;;;5077541;28;20772;-72
2021/07/17 05:02:03;;;;;;;11.63;7.80;;;;;;;;;;5077670;28;20503;-72
2021/07/17 05:04:31;;;;;;;11.77;7.03;;;;;;;;;;5076665;28;20452;-73
2021/07/17 05:07:00;;;;;;;13.17;6.63;;;;;;;;;;5056940;28;20461;-72
2021/07/17 05:09:28;;;;;;;13.70;7.10;;;;;;;;;;5069949;28;20484;-72
2021/07/17 05:11:56;;;;;;;9.73;6.10;;;;;;;;;;5060975;28;20457;-73
2021/07/17 05:14:24;;;;;;;10.67;5.87;;;;;;;;;;5057354;28;20456;-73
2021/07/17 05:16:52;;;;;;;13.47;6.50;;;;;;;;;;5057340;28;20471;-73
2021/07/17 05:19:20;;;;;;;12.53;5.87;;;;;;;;;;5056969;28;21109;-73
2021/07/17 05:21:47;;;;;;;9.43;6.50;;;;;;;;;;5057052;28;20473;-72
2021/07/17 05:24:18;;;;;;;12.10;5.93;;;;;;;;;;5057043;28;20508;-72
2021/07/17 05:26:46;;;;;;;10.00;6.07;;;;;;;;;;5056474;28;20457;-72
2021/07/17 05:29:14;;;;;;;10.07;6.37;;;;;;;;;;5057181;28;20529;-72
2021/07/17 05:31:42;;;;;;;12.40;5.50;;;;;;;;;;5073832;28;20499;-72
2021/07/17 05:34:10;;;;;;;10.40;5.40;;;;;;;;;;5074977;28;20534;-72
2021/07/17 05:36:38;;;;;;;11.67;6.60;;;;;;;;;;5063352;28;20449;-71
2021/07/17 05:39:06;;;;;;;12.50;5.70;;;;;;;;;;5056943;28;20796;-72
2021/07/17 05:41:35;;;;;;;10.67;5.67;;;;;;;;;;5059583;28;20460;-72
2021/07/17 05:44:04;;;;;;;8.10;5.80;;;;;;;;;;5076819;28;20453;-71
2021/07/17 05:46:32;;;;;;;9.37;5.00;;;;;;;;;;5063275;28;20471;-71
2021/07/17 05:48:59;;;;;;;7.07;4.87;;;;;;;;;;5073334;28;20506;-72
2021/07/17 05:51:27;;;;;;;8.43;5.40;;;;;;;;;;5069497;28;20465;-72
2021/07/17 05:53:55;;;;;;;8.97;5.10;;;;;;;;;;5068177;28;20810;-72
2021/07/17 05:56:22;;;;;;;7.80;4.63;;;;;;;;;;5076141;28;20518;-72
2021/07/17 05:58:52;;;;;;;6.23;4.30;;;;;;;;;;5074003;28;20449;-72
2021/07/17 06:01:20;;;;;;;5.33;4.30;;;;;;;;;;5076091;28;20933;-72
2021/07/17 06:03:48;;;;;;;8.00;4.60;;;;;;;;;;5061398;28;20456;-72
2021/07/17 06:06:18;;;;;;;5.63;3.80;;;;;;;;;;5062291;28;20869;-72
2021/07/17 06:08:57;;;;;;;11.97;4.50;;;;;;;;;;5072408;28;20483;-73
2021/07/17 06:11:25;;;;;;;5.93;4.97;;;;;;;;;;5075228;28;20460;-72
2021/07/17 06:13:58;;;;;;;8.90;3.70;;;;;;;;;;5075827;28;20531;-72
2021/07/17 06:16:30;;;;;;;6.90;4.13;;;;;;;;;;5072206;28;20449;-72
2021/07/17 06:19:00;;;;;;;9.00;3.80;;;;;;;;;;5063447;28;20491;-72
2021/07/17 06:21:28;;;;;;;5.80;3.90;;;;;;;;;;5075251;28;20775;-72
2021/07/17 06:24:02;;;;;;;5.83;3.27;;;;;;;;;;5075252;28;20809;-72
2021/07/17 06:26:30;;;;;;;12.43;4.03;;;;;;;;;;5068377;28;20452;-72
2021/07/17 06:28:59;;;;;;;7.20;3.90;;;;;;;;;;5075441;28;20491;-72
2021/07/17 06:31:27;;;;;;;6.03;3.53;;;;;;;;;;5063705;28;20450;-72
2021/07/17 06:33:55;;;;;;;6.43;3.23;;;;;;;;;;5072087;28;20472;-72
2021/07/17 06:36:23;;;;;;;4.33;3.20;;;;;;;;;;5075159;28;20459;-72
2021/07/17 06:38:50;;;;;;;6.20;3.17;;;;;;;;;;5075747;28;20525;-72
2021/07/17 06:41:19;;;;;;;3.70;2.47;;;;;;;;;;5074095;28;20448;-72
2021/07/17 06:43:49;;;;;;;6.17;3.23;;;;;;;;;;5075797;28;20491;-71
2021/07/17 06:46:20;;;;;;;3.40;2.43;;;;;;;;;;5064757;28;20450;-72
2021/07/17 06:48:51;;;;;;;4.23;3.00;;;;;;;;;;5075204;28;20489;-72
2021/07/17 06:51:19;;;;;;;7.37;2.83;;;;;;;;;;5075773;28;20449;-72
2021/07/17 06:53:47;;;;;;;4.40;2.83;;;;;;;;;;5071756;28;20468;-72
2021/07/17 06:56:16;;;;;;;3.73;2.73;;;;;;;;;;5074662;28;20740;-72
2021/07/17 06:58:46;;;;;;;4.33;3.13;;;;;;;;;;5078014;28;20470;-72
2021/07/17 07:01:14;;;;;;;4.93;2.70;;;;;;;;;;5079032;28;20733;-72
2021/07/17 07:03:43;;;;;;;4.30;2.30;;;;;;;;;;5079050;28;20713;-73
2021/07/17 07:06:14;;;;;;;6.53;2.50;;;;;;;;;;5078312;28;20456;-73
2021/07/17 07:08:48;;;;;;;4.10;1.83;;;;;;;;;;5077833;28;20575;-73
2021/07/17 07:11:16;;;;;;;3.43;2.27;;;;;;;;;;5076777;28;20799;-72
2021/07/17 07:13:44;;;;;;;3.50;1.90;;;;;;;;;;5077570;28;20868;-74
2021/07/17 07:16:14;;;;;;;5.67;3.03;;;;;;;;;;5078649;28;20448;-73
2021/07/17 07:18:45;;;;;;;8.83;2.60;;;;;;;;;;5078526;28;20545;-73
2021/07/17 07:21:13;;;;;;;5.27;2.73;;;;;;;;;;5077831;28;20543;-73
2021/07/17 07:23:41;;;;;;;5.53;2.90;;;;;;;;;;5074823;28;20583;-74
2021/07/17 07:26:09;;;;;;;5.73;2.63;;;;;;;;;;5075900;28;20463;-73
2021/07/17 07:28:37;;;;;;;5.53;2.70;;;;;;;;;;5072585;28;20477;-72
2021/07/17 07:31:05;;;;;;;3.07;2.20;;;;;;;;;;5077300;28;20453;-73
2021/07/17 07:33:33;;;;;;;5.20;2.90;;;;;;;;;;5074612;28;20475;-73
2021/07/17 07:36:02;;;;;;;3.37;2.60;;;;;;;;;;5075683;28;20454;-73
2021/07/17 07:41:29;;;;;;;4.33;2.33;;;;;;;;;;5067708;28;20447;-72
2021/07/17 07:44:07;;;;;;;5.00;2.37;;;;;;;;;;5068679;28;20560;-73
2021/07/17 07:46:45;;;;;;;4.43;2.30;;;;;;;;;;5074720;28;20535;-72
2021/07/17 07:49:16;;;;;;;4.27;2.17;;;;;;;;;;5075861;28;20570;-73
2021/07/17 07:51:48;;;;;;;5.43;2.63;;;;;;;;;;5077182;28;20502;-73
2021/07/17 07:54:19;;;;;;;3.93;1.70;;;;;;;;;;5076190;28;20464;-72
2021/07/17 07:56:47;;;;;;;8.93;3.70;;;;;;;;;;5076946;28;20445;-72
2021/07/17 07:59:14;;;;;;;3.83;1.70;;;;;;;;;;5078026;28;20467;-73
2021/07/17 08:01:42;;;;;;;6.40;2.40;;;;;;;;;;5078030;28;20740;-72
2021/07/17 08:04:15;;;;;;;6.33;3.30;;;;;;;;;;5077178;28;20539;-73
2021/07/17 08:06:43;;;;;;;8.10;2.60;;;;;;;;;;5074522;28;20755;-72
2021/07/17 08:09:13;;;;;;;4.30;1.70;;;;;;;;;;5060992;28;20492;-74
2021/07/17 08:11:41;;;;;;;6.70;2.27;;;;;;;;;;5071717;28;20509;-73
2021/07/17 08:14:09;;;;;;;3.50;1.97;;;;;;;;;;5076088;28;20453;-73
2021/07/17 08:16:37;;;;;;;3.50;1.43;;;;;;;;;;5072946;28;20450;-72
2021/07/17 08:19:05;;;;;;;5.30;1.60;;;;;;;;;;5075857;28;20914;-72
2021/07/17 08:21:34;;;;;;;6.37;1.80;;;;;;;;;;5076849;28;20460;-72
2021/07/17 08:24:09;;;;;;;6.33;2.33;;;;;;;;;;5074162;28;20449;-73
2021/07/17 08:26:43;;;;;;;3.50;1.60;;;;;;;;;;5059163;28;20436;-72
2021/07/17 08:29:11;;;;;;;5.27;1.90;;;;;;;;;;5072862;28;20487;-73
2021/07/17 08:31:40;;;;;;;5.20;2.10;;;;;;;;;;5058823;28;20461;-73
2021/07/17 08:34:13;;;;;;;2.03;1.10;;;;;;;;;;5076002;28;20756;-73
2021/07/17 08:36:48;;;;;;;4.70;1.33;;;;;;;;;;5077428;28;20449;-73
2021/07/17 08:39:24;;;;;;;2.70;1.40;;;;;;;;;;5064960;28;20547;-73
2021/07/17 08:41:59;;;;;;;6.70;1.80;;;;;;;;;;5058187;28;20460;-73
2021/07/17 08:44:29;;;;;;;8.70;2.90;;;;;;;;;;5056072;28;20452;-71
2021/07/17 08:46:57;;;;;;;4.93;1.57;;;;;;;;;;5055086;28;20460;-72
2021/07/17 08:49:26;;;;;;;6.50;1.63;;;;;;;;;;5055702;28;20493;-71
2021/07/17 08:51:54;;;;;;;5.90;2.17;;;;;;;;;;5057249;28;20449;-73
2021/07/17 08:54:27;;;;;;;6.40;2.80;;;;;;;;;;5067589;28;20531;-74
2021/07/17 08:57:06;;;;;;;5.83;1.77;;;;;;;;;;5072044;28;20828;-73
2021/07/17 08:59:35;;;;;;;3.70;1.70;;;;;;;;;;5074621;28;20838;-71
2021/07/17 09:02:03;;;;;;;2.73;1.53;;;;;;;;;;5063869;28;20913;-72
2021/07/17 09:04:30;;;;;;;4.40;2.00;;;;;;;;;;5055703;28;20449;-72
2021/07/17 09:07:01;;;;;;;4.70;1.80;;;;;;;;;;5056067;28;20471;-72
2021/07/17 09:09:33;;;;;;;4.60;1.70;;;;;;;;;;5061180;28;20523;-72
2021/07/17 09:12:00;;;;;;;4.60;1.43;;;;;;;;;;5073650;28;20457;-73
2021/07/17 09:14:37;;;;;;;1.93;1.27;;;;;;;;;;5073837;28;20449;-72
2021/07/17 09:17:10;;;;;;;7.27;2.00;;;;;;;;;;5072037;28;20456;-72
2021/07/17 09:19:52;;;;;;;2.60;1.30;;;;;;;;;;5054862;28;20460;-72
2021/07/17 09:22:31;;;;;;;5.03;1.93;;;;;;;;;;5060108;28;20491;-71
2021/07/17 09:25:10;;;;;;;3.40;1.23;;;;;;;;;;5075150;28;20453;-73
2021/07/17 09:27:38;;;;;;;6.20;2.73;;;;;;;;;;5075664;28;20463;-73
2021/07/17 09:30:32;;;;;;;4.57;1.53;;;;;;;;;;5062080;28;20551;-73
2021/07/17 09:33:01;;;;;;;5.00;1.60;;;;;;;;;;5055559;28;20555;-73
2021/07/17 09:35:33;;;;;;;4.30;2.30;;;;;;;;;;5054612;28;20473;-74
2021/07/17 09:38:03;;;;;;;6.33;1.67;;;;;;;;;;5069344;28;20484;-72
2021/07/17 09:43:34;;;;;;;5.23;1.60;;;;;;;;;;5052984;28;20880;-72
2021/07/17 09:46:18;;;;;;;5.27;1.70;;;;;;;;;;5054363;28;20441;-73
2021/07/17 09:48:53;;;;;;;4.03;2.47;;;;;;;;;;5060145;28;20456;-73
2021/07/17 09:51:36;;;;;;;2.70;1.10;;;;;;;;;;5059081;28;20452;-72
2021/07/17 09:54:07;;;;;;;4.60;1.90;;;;;;;;;;5055794;28;20465;-72
2021/07/17 09:56:40;;;;;;;6.70;1.73;;;;;;;;;;5054332;28;20453;-75
2021/07/17 09:59:10;;;;;;;7.07;1.90;;;;;;;;;;5055203;28;20465;-72
2021/07/17 10:01:39;;;;;;;4.30;2.40;;;;;;;;;;5065598;28;20453;-72
2021/07/17 10:04:08;;;;;;;4.17;2.00;;;;;;;;;;5068042;28;20449;-72
2021/07/17 10:06:47;;;;;;;5.00;1.87;;;;;;;;;;5074526;28;20547;-72
2021/07/17 10:09:28;;;;;;;7.73;1.90;;;;;;;;;;5072947;28;20812;-72
2021/07/17 10:11:58;;;;;;;7.83;1.93;;;;;;;;;;5074056;28;20831;-72
2021/07/17 10:14:27;;;;;;;5.33;1.90;;;;;;;;;;5072369;28;20539;-73
2021/07/17 10:17:01;;;;;;;3.40;1.50;;;;;;;;;;5056125;28;20450;-72
2021/07/17 10:19:33;;;;;;;4.83;1.73;;;;;;;;;;5058083;28;20464;-72
2021/07/17 10:22:02;;;;;;;7.50;2.20;;;;;;;;;;5072447;28;20455;-72
2021/07/17 10:24:31;;;;;;;4.30;1.57;;;;;;;;;;5073304;28;20452;-72
2021/07/17 10:27:00;;;;;;;5.13;1.80;;;;;;;;;;5073756;28;20472;-71
2021/07/17 10:29:29;;;;;;;4.37;1.30;;;;;;;;;;5073634;28;20895;-72
2021/07/17 10:32:02;;;;;;;4.53;2.07;;;;;;;;;;5072558;28;20604;-72
2021/07/17 10:34:35;;;;;;;4.37;1.50;;;;;;;;;;5062243;28;20471;-73
2021/07/17 10:37:14;;;;;;;5.43;1.70;;;;;;;;;;5065046;28;20456;-73
2021/07/17 10:39:44;;;;;;;7.57;1.60;;;;;;;;;;5061535;28;20819;-72
2021/07/17 10:42:20;;;;;;;4.53;1.70;;;;;;;;;;5071871;28;20441;-73
2021/07/17 10:44:50;;;;;;;4.77;1.40;;;;;;;;;;5074015;28;20866;-72
2021/07/17 10:47:20;;;;;;;6.17;1.60;;;;;;;;;;5066046;28;20865;-72
2021/07/17 10:49:49;;;;;;;3.13;1.20;;;;;;;;;;5077923;28;20494;-72
2021/07/17 10:52:36;;;;;;;4.23;1.33;;;;;;;;;;5076044;28;20798;-73
2021/07/17 10:55:23;;;;;;;3.90;1.27;;;;;;;;;;5073568;28;21020;-73
2021/07/17 10:58:02;;;;;;;4.53;1.43;;;;;;;;;;5059994;28;20743;-73
2021/07/17 11:00:59;;;;;;;4.37;1.20;;;;;;;;;;5068027;28;20474;-72
2021/07/17 11:06:49;;;;;;;;;;;;;;;;;;;;;
2021/07/17 11:09:30;;;;;;;3.97;1.63;;;;;;;;;;5080599;28;20439;-72
2021/07/17 11:12:16;;;;;;;3.87;1.87;;;;;;;;;;5077991;28;21116;-73
2021/07/17 11:14:45;;;;;;;5.70;1.50;;;;;;;;;;5081495;28;20459;-72
2021/07/17 11:17:16;;;;;;;6.30;1.70;;;;;;;;;;5063719;28;20571;-73
2021/07/17 11:19:50;;;;;;;6.87;2.00;;;;;;;;;;5061725;28;20457;-72
2021/07/17 11:22:28;;;;;;;5.40;1.77;;;;;;;;;;5078422;28;20464;-73
2021/07/17 11:25:05;;;;;;;9.00;1.90;;;;;;;;;;5077488;28;20468;-73
2021/07/17 11:27:48;;;;;;;6.43;1.47;;;;;;;;;;5077361;28;20776;-72
2021/07/17 11:30:17;;;;;;;3.83;1.40;;;;;;;;;;5074176;28;20484;-74
2021/07/17 11:33:03;;;;;;;2.33;1.00;;;;;;;;;;5073624;28;20474;-74
2021/07/17 11:35:34;;;;;;;4.37;1.90;;;;;;;;;;5076580;28;20569;-72
2021/07/17 11:38:06;;;;;;;2.90;1.37;;;;;;;;;;5077063;28;20551;-74
2021/07/17 11:40:44;;;;;;;12.10;2.00;;;;;;;;;;5077445;28;20448;-73
2021/07/17 11:43:13;;;;;;;7.80;1.50;;;;;;;;;;5075425;28;20456;-73
2021/07/17 11:45:50;;;;;;;2.20;1.10;;;;;;;;;;5072968;28;20827;-74
2021/07/17 11:48:33;;;;;;;3.97;1.17;;;;;;;;;;5067976;28;21436;-73
2021/07/17 11:51:04;;;;;;;5.93;1.63;;;;;;;;;;5075655;28;20496;-73
2021/07/17 11:53:32;;;;;;;2.73;1.43;;;;;;;;;;5074687;28;21108;-73
2021/07/17 11:56:02;;;;;;;4.10;1.53;;;;;;;;;;5076276;28;20449;-73
2021/07/17 11:58:31;;;;;;;6.83;1.50;;;;;;;;;;5077783;28;20543;-73
2021/07/17 12:01:04;;;;;;;4.93;1.50;;;;;;;;;;5069865;28;20533;-73
2021/07/17 12:03:33;;;;;;;6.30;1.50;;;;;;;;;;5068134;28;20496;-72
2021/07/17 12:06:03;;;;;;;6.77;1.93;;;;;;;;;;5056588;28;21162;-72
2021/07/17 12:08:37;;;;;;;4.53;1.30;;;;;;;;;;5061543;28;20460;-73
2021/07/17 12:11:31;;;;;;;7.13;2.63;;;;;;;;;;5062290;28;20476;-72
2021/07/17 12:14:21;;;;;;;4.20;1.80;;;;;;;;;;5067907;28;20456;-72
2021/07/17 12:17:05;;;;;;;2.87;1.20;;;;;;;;;;5077227;28;20459;-73
2021/07/17 12:19:36;;;;;;;8.23;1.53;;;;;;;;;;5073809;28;20518;-72
2021/07/17 12:22:11;;;;;;;3.60;1.40;;;;;;;;;;5076326;28;20526;-73
2021/07/17 12:24:42;;;;;;;4.27;1.47;;;;;;;;;;5075075;28;20487;-72
2021/07/17 12:27:28;;;;;;;6.30;1.67;;;;;;;;;;5076430;28;21025;-72
2021/07/17 12:29:58;;;;;;;3.00;1.50;;;;;;;;;;5074746;28;20460;-72
2021/07/17 12:32:26;;;;;;;5.23;1.90;;;;;;;;;;5069880;28;20556;-73
2021/07/17 12:34:58;;;;;;;2.90;1.40;;;;;;;;;;5075372;28;20445;-73
2021/07/17 12:37:31;;;;;;;3.50;1.93;;;;;;;;;;5072797;28;20768;-73
2021/07/17 12:40:06;;;;;;;8.53;1.97;;;;;;;;;;5075967;28;20682;-73
2021/07/17 12:42:34;;;;;;;6.57;2.17;;;;;;;;;;5076597;28;20881;-72
2021/07/17 12:45:02;;;;;;;3.53;1.40;;;;;;;;;;5076441;28;20535;-73
2021/07/17 12:47:30;;;;;;;6.30;1.60;;;;;;;;;;5077084;28;20752;-73
2021/07/17 12:50:02;;;;;;;8.40;1.57;;;;;;;;;;5076305;28;20441;-73
2021/07/17 12:52:32;;;;;;;4.57;1.60;;;;;;;;;;5076627;28;20961;-75
2021/07/17 12:55:06;;;;;;;5.53;1.53;;;;;;;;;;5063434;28;20800;-74
2021/07/17 12:57:36;;;;;;;6.07;1.70;;;;;;;;;;5068935;28;20539;-73
2021/07/17 13:00:05;;;;;;;6.10;1.83;;;;;;;;;;5075451;28;20958;-72
2021/07/17 13:02:34;;;;;;;2.30;1.40;;;;;;;;;;5075233;28;20476;-73
2021/07/17 13:05:06;;;;;;;5.80;1.50;;;;;;;;;;5064405;28;20456;-73
2021/07/17 13:07:40;;;;;;;12.23;2.10;;;;;;;;;;5070419;28;20555;-73
2021/07/17 13:10:11;;;;;;;6.60;1.50;;;;;;;;;;5074264;28;20437;-74
2021/07/17 13:12:41;;;;;;;4.90;2.20;;;;;;;;;;5075117;28;21002;-74
2021/07/17 13:15:15;;;;;;;3.10;1.37;;;;;;;;;;5075464;28;20448;-72
2021/07/17 13:17:47;;;;;;;4.63;1.60;;;;;;;;;;5077535;28;20467;-73
2021/07/17 13:20:15;;;;;;;7.73;1.70;;;;;;;;;;5081885;28;20544;-73
2021/07/17 13:22:46;;;;;;;5.83;1.40;;;;;;;;;;5076328;28;20457;-74
2021/07/17 13:25:15;;;;;;;6.33;1.53;;;;;;;;;;5074176;28;20510;-74
2021/07/17 13:27:43;;;;;;;4.63;1.10;;;;;;;;;;5074374;28;20456;-73
2021/07/17 13:30:12;;;;;;;4.40;1.00;;;;;;;;;;5068813;28;20476;-74
2021/07/17 13:32:43;;;;;;;3.20;1.50;;;;;;;;;;5095657;28;20859;-73
2021/07/17 13:35:20;;;;;;;7.80;1.70;;;;;;;;;;5074876;28;20535;-72
2021/07/17 13:38:03;;;;;;;4.23;1.57;;;;;;;;;;5064238;28;20954;-73
2021/07/17 13:40:31;;;;;;;4.57;2.40;;;;;;;;;;5066193;28;20547;-74
2021/07/17 13:43:03;;;;;;;4.97;2.47;;;;;;;;;;5054895;28;20556;-74
2021/07/17 13:45:38;;;;;;;3.17;1.13;;;;;;;;;;5059353;28;20527;-74
2021/07/17 13:48:07;;;;;;;7.13;2.50;;;;;;;;;;5074712;28;20478;-73
2021/07/17 13:50:41;;;;;;;8.03;1.37;;;;;;;;;;5072417;28;20590;-73
2021/07/17 13:53:13;;;;;;;4.43;1.60;;;;;;;;;;5079491;28;20470;-74
2021/07/17 13:55:41;;;;;;;4.57;1.37;;;;;;;;;;5075641;28;20469;-71
2021/07/17 13:58:12;;;;;;;9.57;2.20;;;;;;;;;;5074944;28;20756;-73
2021/07/17 14:00:56;;;;;;;2.63;1.07;;;;;;;;;;5076716;28;20770;-73
2021/07/17 14:03:32;;;;;;;3.63;1.40;;;;;;;;;;5073913;28;20475;-73
2021/07/17 14:06:01;;;;;;;3.90;1.40;;;;;;;;;;5062892;28;20551;-73
2021/07/17 14:08:34;;;;;;;9.07;1.43;;;;;;;;;;5054109;28;20453;-71
2021/07/17 14:11:04;;;;;;;3.70;1.30;;;;;;;;;;5072159;28;20595;-72
2021/07/17 14:13:35;;;;;;;2.53;1.23;;;;;;;;;;5074742;28;20445;-72
2021/07/17 14:16:03;;;;;;;6.60;1.40;;;;;;;;;;5074905;28;20488;-72
2021/07/17 14:18:33;;;;;;;3.97;1.03;;;;;;;;;;5073604;28;20555;-72
2021/07/17 14:21:02;;;;;;;7.13;1.50;;;;;;;;;;5074288;28;20460;-72
2021/07/17 14:23:34;;;;;;;3.07;1.50;;;;;;;;;;5055713;28;20525;-71
2021/07/17 14:26:04;;;;;;;7.33;1.17;;;;;;;;;;5057067;28;20457;-72
2021/07/17 14:28:33;;;;;;;4.80;1.60;;;;;;;;;;5073263;28;20849;-73
2021/07/17 14:31:03;;;;;;;2.50;1.37;;;;;;;;;;5075205;28;21101;-73
2021/07/17 14:33:31;;;;;;;5.47;1.47;;;;;;;;;;5075196;28;20456;-73
2021/07/17 14:35:59;;;;;;;3.07;1.30;;;;;;;;;;5074828;28;20529;-71
2021/07/17 14:38:27;;;;;;;5.17;1.40;;;;;;;;;;5074455;28;20846;-73
2021/07/17 14:40:56;;;;;;;2.97;1.37;;;;;;;;;;5075334;28;20884;-73
2021/07/17 14:43:25;;;;;;;5.87;1.77;;;;;;;;;;5063193;28;20895;-73
2021/07/17 14:45:56;;;;;;;5.90;1.80;;;;;;;;;;5055695;28;20544;-72
2021/07/17 14:48:23;;;;;;;4.23;1.37;;;;;;;;;;5061770;28;20483;-71
2021/07/17 14:50:54;;;;;;;7.30;1.83;;;;;;;;;;5054216;28;20583;-72
2021/07/17 14:53:23;;;;;;;3.30;1.33;;;;;;;;;;5054493;28;20452;-72
2021/07/17 14:55:53;;;;;;;4.00;1.67;;;;;;;;;;5054149;28;20461;-72
2021/07/17 14:58:27;;;;;;;2.60;1.20;;;;;;;;;;5068374;28;20445;-73
2021/07/17 15:00:55;;;;;;;4.27;2.17;;;;;;;;;;5073559;28;20517;-72
2021/07/17 15:03:23;;;;;;;3.30;1.40;;;;;;;;;;5054563;28;20457;-74
2021/07/17 15:05:51;;;;;;;3.33;1.33;;;;;;;;;;5054330;28;20538;-72
2021/07/17 15:08:19;;;;;;;4.40;1.13;;;;;;;;;;5055588;28;20454;-74